Time;durP1;ratioP1;P1;durP2;ratioP2;P2;SDS_P1;SDS_P2;PMS_P1;PMS_P2;Temp;Humidity;BMP_temperature;BMP_pressure;BME280_temperature;BME280_humidity;BME280_pressure;Samples;Min_cycle;Max_cycle;Signal;HPM_P1;HPM_P2
2021/12/19 00:00:20;;;;;;;86.10;16.80;;;6.40;99.90;;;;;;5092862;28;20024;-76
2021/12/19 00:10:45;;;;;;;61.08;15.60;;;6.30;99.90;;;;;;5090057;28;20123;-76
2021/12/19 00:13:12;;;;;;;36.20;13.73;;;6.20;99.90;;;;;;5092871;28;20463;-76
2021/12/19 00:15:38;;;;;;;32.42;10.80;;;6.20;99.90;;;;;;5092074;28;20035;-76
2021/12/19 00:18:03;;;;;;;39.72;12.52;;;6.20;99.90;;;;;;5091851;28;20059;-77
2021/12/19 00:20:29;;;;;;;27.10;10.82;;;6.20;99.90;;;;;;5092359;28;20036;-78
2021/12/19 00:22:54;;;;;;;23.58;9.18;;;6.30;99.90;;;;;;5093488;28;20020;-76
2021/12/19 00:25:20;;;;;;;20.08;8.02;;;6.20;99.90;;;;;;5091765;28;20032;-77
2021/12/19 00:27:45;;;;;;;15.05;6.97;;;6.20;99.90;;;;;;5092581;28;20056;-75
2021/12/19 00:30:11;;;;;;;9.70;5.35;;;6.30;99.90;;;;;;5091914;28;20020;-76
2021/12/19 00:32:40;;;;;;;12.80;6.63;;;6.20;99.90;;;;;;5092363;28;20040;-76
2021/12/19 00:35:06;;;;;;;8.10;5.25;;;6.20;99.90;;;;;;5091902;28;20058;-76
2021/12/19 00:37:31;;;;;;;9.00;5.20;;;6.30;99.90;;;;;;5092732;28;20036;-75
2021/12/19 00:39:57;;;;;;;4.70;3.38;;;6.30;99.90;;;;;;5092927;28;20028;-75
2021/12/19 00:42:32;;;;;;;4.80;2.95;;;6.20;99.90;;;;;;5093058;28;20111;-74
2021/12/19 00:45:01;;;;;;;5.43;2.70;;;6.20;99.90;;;;;;5092128;28;20149;-77
2021/12/19 00:47:27;;;;;;;7.20;3.58;;;6.20;99.90;;;;;;5092564;28;20096;-76
2021/12/19 00:49:54;;;;;;;8.38;4.63;;;6.20;99.90;;;;;;5092476;28;20032;-76
2021/12/19 00:52:20;;;;;;;9.95;4.18;;;6.20;99.90;;;;;;5092407;28;20103;-76
2021/12/19 00:54:48;;;;;;;5.35;3.97;;;6.20;99.90;;;;;;5092793;28;20067;-77
2021/12/19 00:57:14;;;;;;;7.47;4.20;;;6.30;99.90;;;;;;5090537;28;20098;-76
2021/12/19 00:59:39;;;;;;;8.23;3.70;;;6.20;99.90;;;;;;5092012;28;20502;-77
2021/12/19 01:02:05;;;;;;;7.22;3.55;;;6.20;99.90;;;;;;5092680;28;20468;-76
2021/12/19 01:04:31;;;;;;;8.35;3.83;;;6.30;99.90;;;;;;5090504;28;20024;-76
2021/12/19 01:07:00;;;;;;;8.18;4.10;;;6.20;99.90;;;;;;5092005;28;20459;-76
2021/12/19 01:09:27;;;;;;;5.15;3.50;;;6.20;99.90;;;;;;5090766;28;20081;-74
2021/12/19 01:11:52;;;;;;;7.93;3.22;;;6.20;99.90;;;;;;5090206;28;20040;-75
2021/12/19 01:14:18;;;;;;;7.38;3.40;;;6.10;99.90;;;;;;5091593;28;20096;-76
2021/12/19 01:16:44;;;;;;;6.03;4.10;;;6.10;99.90;;;;;;5091586;28;20130;-75
2021/12/19 01:19:10;;;;;;;9.98;4.57;;;6.10;99.90;;;;;;5091447;28;20032;-75
2021/12/19 01:21:36;;;;;;;5.80;4.05;;;6.10;99.90;;;;;;5091253;28;20039;-76
2021/12/19 01:24:02;;;;;;;10.13;5.38;;;6.10;99.90;;;;;;5090883;28;20028;-76
2021/12/19 01:26:27;;;;;;;7.32;4.63;;;6.00;99.90;;;;;;5090352;28;20425;-75
2021/12/19 01:28:53;;;;;;;11.48;4.90;;;6.10;99.90;;;;;;5091429;28;20024;-76
2021/12/19 01:31:19;;;;;;;8.27;5.38;;;6.10;99.90;;;;;;5091898;28;20035;-76
2021/12/19 01:33:44;;;;;;;8.77;4.95;;;6.10;99.90;;;;;;5091058;28;20036;-76
2021/12/19 01:36:11;;;;;;;8.07;4.95;;;6.10;99.90;;;;;;5091130;28;20024;-77
2021/12/19 01:38:37;;;;;;;8.68;4.80;;;6.10;99.90;;;;;;5091653;28;20024;-77
2021/12/19 01:41:03;;;;;;;7.72;4.15;;;6.10;99.90;;;;;;5090753;28;20066;-77
2021/12/19 01:43:31;;;;;;;7.25;4.57;;;6.10;99.90;;;;;;5092047;28;20024;-77
2021/12/19 01:45:57;;;;;;;5.93;4.55;;;6.10;99.90;;;;;;5092266;28;20032;-75
2021/12/19 01:48:23;;;;;;;12.00;4.80;;;6.10;99.90;;;;;;5090711;28;20435;-76
2021/12/19 01:50:49;;;;;;;7.50;4.50;;;6.10;99.90;;;;;;5092605;28;20050;-76
2021/12/19 01:53:15;;;;;;;9.85;4.57;;;6.10;99.90;;;;;;5091028;28;20551;-76
2021/12/19 01:55:42;;;;;;;6.03;4.30;;;6.20;99.90;;;;;;5090285;28;20438;-77
2021/12/19 01:58:09;;;;;;;8.38;5.32;;;6.10;99.90;;;;;;5091372;28;20028;-77
2021/12/19 02:00:39;;;;;;;7.35;5.15;;;6.10;99.90;;;;;;5091168;28;20038;-77
2021/12/19 02:03:06;;;;;;;10.10;5.10;;;6.10;99.90;;;;;;5092148;28;20123;-77
2021/12/19 02:05:32;;;;;;;9.93;5.75;;;6.20;99.90;;;;;;5092570;28;20032;-77
2021/12/19 02:07:59;;;;;;;6.80;4.93;;;6.20;99.90;;;;;;5091383;28;20032;-77
2021/12/19 02:10:27;;;;;;;9.75;5.63;;;6.20;99.90;;;;;;5094390;28;20125;-77
2021/12/19 02:12:54;;;;;;;10.93;5.80;;;6.30;99.90;;;;;;5095878;28;20365;-77
2021/12/19 02:15:22;;;;;;;7.97;5.45;;;6.20;99.90;;;;;;5093972;28;20388;-75
2021/12/19 02:17:52;;;;;;;9.85;5.60;;;6.20;99.90;;;;;;5095520;28;20028;-74
2021/12/19 02:20:19;;;;;;;7.35;5.18;;;6.20;99.90;;;;;;5088776;28;20032;-76
2021/12/19 02:22:45;;;;;;;10.25;6.32;;;6.30;99.90;;;;;;5084386;28;20028;-77
2021/12/19 02:25:14;;;;;;;10.85;5.40;;;6.20;99.90;;;;;;5094959;28;20490;-76
2021/12/19 02:27:41;;;;;;;9.90;4.88;;;6.20;99.90;;;;;;5095197;28;20027;-77
2021/12/19 02:30:08;;;;;;;9.85;5.45;;;6.20;99.90;;;;;;5094227;28;20020;-76
2021/12/19 02:32:36;;;;;;;9.18;5.18;;;6.20;99.90;;;;;;5094733;28;20028;-76
2021/12/19 02:35:06;;;;;;;8.73;6.07;;;6.30;99.90;;;;;;5095416;28;20078;-76
2021/12/19 02:37:57;;;;;;;11.75;6.68;;;6.30;99.90;;;;;;5094552;28;20480;-76
2021/12/19 02:48:35;;;;;;;19.10;6.63;;;6.30;99.90;;;;;;5094102;28;20185;-77
2021/12/19 02:51:02;;;;;;;15.30;6.30;;;6.40;99.90;;;;;;5093363;28;20020;-77
2021/12/19 02:53:27;;;;;;;11.88;6.28;;;6.40;99.90;;;;;;5094522;28;20685;-76
2021/12/19 02:55:53;;;;;;;13.13;6.32;;;6.50;99.90;;;;;;5094441;28;20068;-76
2021/12/19 02:58:19;;;;;;;21.45;6.25;;;6.50;99.90;;;;;;5092345;28;20039;-76
2021/12/19 03:00:44;;;;;;;13.80;6.20;;;6.50;99.90;;;;;;5094763;28;20035;-77
2021/12/19 03:03:10;;;;;;;15.10;6.85;;;6.40;99.90;;;;;;5094047;28;20024;-76
2021/12/19 03:05:37;;;;;;;11.90;6.25;;;6.50;99.90;;;;;;5092628;28;20384;-76
2021/12/19 03:08:03;;;;;;;19.30;5.80;;;6.50;99.90;;;;;;5093391;28;20027;-76
2021/12/19 03:18:34;;;;;;;13.38;5.95;;;6.60;99.90;;;;;;5073591;28;20150;-75
2021/12/19 03:21:00;;;;;;;13.32;5.95;;;6.60;99.90;;;;;;5073334;28;20070;-76
2021/12/19 03:23:26;;;;;;;16.77;6.82;;;6.60;99.90;;;;;;5082876;28;20036;-76
2021/12/19 03:25:52;;;;;;;12.75;6.97;;;6.60;99.90;;;;;;5093358;28;20030;-76
2021/12/19 03:28:18;;;;;;;11.05;6.10;;;6.70;99.90;;;;;;5094560;28;20028;-75
2021/12/19 03:30:46;;;;;;;11.93;6.40;;;6.60;99.90;;;;;;5093383;28;20035;-75
2021/12/19 03:33:12;;;;;;;12.68;5.22;;;6.70;99.90;;;;;;5093062;28;20062;-76
2021/12/19 03:35:39;;;;;;;10.15;4.80;;;6.70;99.90;;;;;;5094016;28;20095;-77
2021/12/19 03:38:07;;;;;;;12.25;5.32;;;6.70;99.90;;;;;;5093974;28;20423;-75
2021/12/19 03:40:37;;;;;;;11.38;5.60;;;6.70;99.90;;;;;;5092687;28;20093;-75
2021/12/19 03:43:15;;;;;;;11.15;5.20;;;6.70;99.90;;;;;;5092891;28;20105;-75
2021/12/19 03:45:44;;;;;;;8.57;4.18;;;6.70;99.90;;;;;;5093469;28;20118;-76
2021/12/19 03:48:12;;;;;;;9.80;4.07;;;6.70;99.90;;;;;;5092215;28;20048;-76
2021/12/19 03:50:39;;;;;;;8.38;3.97;;;6.70;99.90;;;;;;5093297;28;20028;-76
2021/12/19 03:53:05;;;;;;;7.75;2.90;;;6.70;99.90;;;;;;5092052;28;20093;-75
2021/12/19 03:55:31;;;;;;;9.48;4.18;;;6.70;99.90;;;;;;5092341;28;20031;-76
2021/12/19 03:58:02;;;;;;;6.65;3.25;;;6.70;99.90;;;;;;5094186;28;20024;-76
2021/12/19 04:00:28;;;;;;;9.55;4.65;;;6.70;99.90;;;;;;5092511;28;20166;-76
2021/12/19 04:02:57;;;;;;;8.52;3.88;;;6.70;99.90;;;;;;5094517;28;20119;-76
2021/12/19 04:05:23;;;;;;;6.18;3.67;;;6.80;99.90;;;;;;5093662;28;20507;-76
2021/12/19 04:07:48;;;;;;;10.27;3.85;;;6.80;99.90;;;;;;5092856;28;20593;-76
2021/12/19 04:10:15;;;;;;;7.93;3.78;;;6.80;99.90;;;;;;5093698;28;20048;-77
2021/12/19 04:12:44;;;;;;;6.40;3.28;;;6.80;99.90;;;;;;5092871;28;20044;-76
2021/12/19 04:15:11;;;;;;;5.70;2.78;;;7.00;99.90;;;;;;5092114;28;20034;-77
2021/12/19 04:17:37;;;;;;;7.05;2.42;;;6.90;99.90;;;;;;5093083;28;20028;-76
2021/12/19 04:20:04;;;;;;;8.20;2.65;;;7.00;99.90;;;;;;5092970;28;20027;-77
2021/12/19 04:22:29;;;;;;;6.97;3.05;;;6.90;99.90;;;;;;5092052;28;20035;-77
2021/12/19 04:24:55;;;;;;;4.25;2.80;;;7.00;99.90;;;;;;5092716;28;20027;-77
2021/12/19 04:27:20;;;;;;;4.82;2.65;;;7.00;99.90;;;;;;5092540;28;20109;-77
2021/12/19 04:29:46;;;;;;;5.88;2.67;;;6.90;99.90;;;;;;5092352;28;20030;-77
2021/12/19 04:32:12;;;;;;;6.18;3.50;;;6.90;99.90;;;;;;5080348;28;20484;-75
2021/12/19 04:34:38;;;;;;;6.25;3.13;;;7.00;99.90;;;;;;5080484;28;20024;-75
2021/12/19 04:37:21;;;;;;;9.35;4.07;;;6.90;99.90;;;;;;5076572;28;20066;-75
2021/12/19 04:40:08;;;;;;;7.13;3.00;;;7.00;99.90;;;;;;5073835;28;20071;-73
2021/12/19 04:53:34;;;;;;;6.47;2.72;;;7.00;99.90;;;;;;5071416;28;20178;-75
2021/12/19 04:56:20;;;;;;;6.60;3.08;;;7.00;99.90;;;;;;5073198;28;20036;-76
2021/12/19 05:04:23;;;;;;;4.82;2.90;;;7.00;99.90;;;;;;5077644;28;20048;-74
2021/12/19 05:14:03;;;;;;;5.57;2.97;;;7.10;99.90;;;;;;5078066;28;20477;-75
2021/12/19 05:15:02;;;;;;;2.55;1.27;;;6.90;99.90;;;;;;5076991;28;20039;-76
2021/12/19 05:17:30;;;;;;;4.63;1.70;;;6.90;99.90;;;;;;5092018;28;20020;-76
2021/12/19 05:20:14;;;;;;;4.07;2.33;;;6.90;99.90;;;;;;5092451;28;20472;-77
2021/12/19 05:22:48;;;;;;;4.28;1.65;;;6.90;99.90;;;;;;5092148;28;20047;-77
2021/12/19 05:25:17;;;;;;;3.67;1.70;;;6.90;99.90;;;;;;5090762;28;20020;-76
2021/12/19 05:27:50;;;;;;;3.55;1.77;;;6.80;99.90;;;;;;5092408;28;20107;-76
2021/12/19 05:30:16;;;;;;;2.80;2.05;;;6.80;99.90;;;;;;5091989;28;20060;-77
2021/12/19 05:32:44;;;;;;;2.90;1.65;;;6.80;99.90;;;;;;5091294;28;20048;-76
2021/12/19 05:35:14;;;;;;;4.55;1.83;;;6.80;99.90;;;;;;5075114;28;20103;-77
2021/12/19 05:45:56;;;;;;;4.25;2.50;;;6.80;99.90;;;;;;5051335;28;20044;-76
2021/12/19 05:48:21;;;;;;;4.30;2.35;;;6.90;99.90;;;;;;5076622;28;20132;-76
2021/12/19 05:50:47;;;;;;;5.35;2.40;;;6.90;99.90;;;;;;5074848;28;20012;-74
2021/12/19 05:53:14;;;;;;;7.82;3.03;;;6.90;99.90;;;;;;5078092;28;20035;-76
2021/12/19 05:55:39;;;;;;;6.25;3.17;;;6.90;99.90;;;;;;5076861;28;20066;-74
2021/12/19 05:58:05;;;;;;;5.43;3.05;;;6.90;99.90;;;;;;5082763;28;20059;-77
2021/12/19 06:00:33;;;;;;;6.68;3.08;;;6.90;99.90;;;;;;5073897;28;20456;-74
2021/12/19 06:02:59;;;;;;;6.07;2.78;;;6.90;99.90;;;;;;5076966;28;20039;-75
2021/12/19 06:05:25;;;;;;;7.72;3.22;;;6.90;99.90;;;;;;5080209;28;20024;-76
2021/12/19 06:07:51;;;;;;;5.95;3.28;;;7.00;99.90;;;;;;5073662;28;20032;-76
2021/12/19 06:10:17;;;;;;;8.05;4.35;;;7.00;99.90;;;;;;5080481;28;20624;-76
2021/12/19 06:12:42;;;;;;;8.48;4.22;;;7.00;99.90;;;;;;5078065;28;20119;-75
2021/12/19 06:15:10;;;;;;;11.27;4.40;;;7.10;99.90;;;;;;5076964;28;20081;-76
2021/12/19 06:17:37;;;;;;;7.00;3.45;;;7.00;99.90;;;;;;5076812;28;20056;-76
2021/12/19 06:20:03;;;;;;;9.10;4.03;;;7.00;99.90;;;;;;5077960;28;20026;-76
2021/12/19 06:22:29;;;;;;;6.20;3.30;;;7.10;99.90;;;;;;5079599;28;20028;-75
2021/12/19 06:24:55;;;;;;;4.82;3.00;;;7.00;99.90;;;;;;5076618;28;20465;-76
2021/12/19 06:27:20;;;;;;;4.28;2.70;;;7.00;99.90;;;;;;5078112;28;20123;-76
2021/12/19 06:29:46;;;;;;;6.90;2.25;;;7.00;99.90;;;;;;5073800;28;20035;-76
2021/12/19 06:32:11;;;;;;;4.20;2.15;;;6.90;99.90;;;;;;5076679;28;20024;-76
2021/12/19 06:34:37;;;;;;;5.30;2.45;;;6.90;99.90;;;;;;5076807;28;20029;-75
2021/12/19 06:37:08;;;;;;;5.88;1.80;;;6.90;99.90;;;;;;5085968;28;20028;-74
2021/12/19 06:39:34;;;;;;;5.90;2.00;;;6.90;99.90;;;;;;5084702;28;20028;-75
2021/12/19 06:42:00;;;;;;;5.03;2.25;;;6.90;99.90;;;;;;5077299;28;20553;-77
2021/12/19 06:44:26;;;;;;;4.47;1.88;;;6.90;99.90;;;;;;5078456;28;20053;-76
2021/12/19 06:46:51;;;;;;;3.28;1.42;;;7.00;99.90;;;;;;5083028;28;20484;-77
2021/12/19 06:49:17;;;;;;;2.78;1.30;;;6.90;99.90;;;;;;5094418;28;20030;-77
2021/12/19 06:51:43;;;;;;;3.30;1.55;;;6.90;99.90;;;;;;5094776;28;20020;-76
2021/12/19 06:54:08;;;;;;;4.43;1.67;;;7.00;99.90;;;;;;5093203;28;20036;-77
2021/12/19 06:56:35;;;;;;;6.80;2.40;;;6.90;99.90;;;;;;5094107;28;20388;-77
2021/12/19 06:59:00;;;;;;;3.75;1.88;;;6.90;99.90;;;;;;5088981;28;20092;-77
2021/12/19 07:01:26;;;;;;;5.07;1.60;;;7.00;99.90;;;;;;5100802;28;20027;-76
2021/12/19 07:03:52;;;;;;;4.18;2.08;;;6.90;99.90;;;;;;5096625;28;20039;-76
2021/12/19 07:06:18;;;;;;;7.55;1.98;;;6.90;99.90;;;;;;5092407;28;20028;-76
2021/12/19 07:08:43;;;;;;;2.35;1.33;;;6.90;99.90;;;;;;5090834;28;20023;-76
2021/12/19 07:11:09;;;;;;;2.85;1.27;;;6.90;99.90;;;;;;5088179;28;20032;-76
2021/12/19 07:13:34;;;;;;;2.63;1.23;;;7.00;99.90;;;;;;5101923;28;20035;-75
2021/12/19 07:16:00;;;;;;;3.15;1.38;;;7.00;99.90;;;;;;5095605;28;20397;-76
2021/12/19 07:18:26;;;;;;;4.20;1.42;;;7.00;99.90;;;;;;5092948;28;20020;-77
2021/12/19 07:20:51;;;;;;;2.25;1.30;;;6.90;99.90;;;;;;5096533;28;20016;-76
2021/12/19 07:23:20;;;;;;;5.65;2.70;;;6.90;99.90;;;;;;5092691;28;20534;-77
2021/12/19 07:25:46;;;;;;;3.63;1.52;;;6.90;99.90;;;;;;5095625;28;20102;-77
2021/12/19 07:28:13;;;;;;;27.83;8.90;;;7.00;99.90;;;;;;5101588;28;20138;-78
2021/12/19 07:30:40;;;;;;;2.83;1.40;;;6.90;99.90;;;;;;5092422;28;20083;-76
2021/12/19 07:33:08;;;;;;;2.55;1.70;;;7.00;99.90;;;;;;5086123;28;20054;-76
2021/12/19 07:35:37;;;;;;;23.80;11.13;;;7.00;99.90;;;;;;5090719;28;20476;-77
2021/12/19 07:38:05;;;;;;;5.35;3.72;;;7.00;99.90;;;;;;5085089;28;20105;-75
2021/12/19 07:40:39;;;;;;;8.27;6.10;;;6.90;99.90;;;;;;5081519;28;20036;-75
2021/12/19 07:43:08;;;;;;;99.35;46.80;;;6.90;99.90;;;;;;5086809;28;20087;-78
2021/12/19 07:45:34;;;;;;;6.20;5.03;;;6.90;99.90;;;;;;5090999;28;20028;-77
2021/12/19 07:48:00;;;;;;;31.85;14.93;;;6.90;99.90;;;;;;5089407;28;20056;-76
2021/12/19 07:50:27;;;;;;;421.13;220.88;;;6.90;99.90;;;;;;5082877;28;20043;-78
2021/12/19 07:52:54;;;;;;;385.60;189.85;;;6.80;99.90;;;;;;5089786;28;20031;-77
2021/12/19 07:55:20;;;;;;;377.30;154.00;;;6.80;99.90;;;;;;5083496;28;20454;-76
2021/12/19 07:57:46;;;;;;;17.65;11.15;;;6.80;99.90;;;;;;5086568;28;20024;-76
2021/12/19 08:00:13;;;;;;;6.28;3.92;;;6.80;99.90;;;;;;5093694;28;20050;-76
2021/12/19 08:02:40;;;;;;;5.85;2.92;;;6.80;99.90;;;;;;5082683;28;20043;-76
2021/12/19 08:05:07;;;;;;;3.20;1.95;;;6.70;99.90;;;;;;5086321;28;20387;-77
2021/12/19 08:07:32;;;;;;;7.88;4.10;;;6.70;99.90;;;;;;5087816;28;20085;-75
2021/12/19 08:12:24;;;;;;;2.53;1.85;;;6.80;99.90;;;;;;5080102;28;20052;-76
2021/12/19 08:14:50;;;;;;;4.45;3.83;;;6.80;99.90;;;;;;5082519;28;20028;-75
2021/12/19 08:17:17;;;;;;;4.05;2.40;;;6.80;99.90;;;;;;5090241;28;20028;-77
2021/12/19 08:19:43;;;;;;;3.33;1.70;;;6.80;99.90;;;;;;5074221;28;20103;-76
2021/12/19 08:22:09;;;;;;;4.65;2.13;;;6.90;99.90;;;;;;5071772;28;20024;-77
2021/12/19 08:24:38;;;;;;;3.50;2.17;;;6.90;99.90;;;;;;5083010;28;20032;-75
2021/12/19 08:27:04;;;;;;;2.40;1.70;;;6.90;99.90;;;;;;5079863;28;20024;-76
2021/12/19 08:29:30;;;;;;;3.90;2.60;;;6.90;99.90;;;;;;5091051;28;20357;-76
2021/12/19 08:31:55;;;;;;;6.95;2.28;;;7.00;99.90;;;;;;5074076;28;20067;-75
2021/12/19 08:34:21;;;;;;;2.63;1.52;;;7.10;99.90;;;;;;5075108;28;20110;-77
2021/12/19 08:36:46;;;;;;;2.70;1.90;;;7.00;99.90;;;;;;5075978;28;20036;-76
2021/12/19 08:39:13;;;;;;;3.15;1.80;;;7.00;99.90;;;;;;5073785;28;20078;-76
2021/12/19 08:41:39;;;;;;;4.28;1.92;;;7.00;99.90;;;;;;5074453;28;20038;-75
2021/12/19 08:44:05;;;;;;;56.78;16.02;;;7.10;99.90;;;;;;5076178;28;20035;-75
2021/12/19 08:46:35;;;;;;;76.00;18.50;;;7.10;99.90;;;;;;5077063;28;20044;-75
2021/12/19 08:49:03;;;;;;;100.78;16.80;;;7.10;99.90;;;;;;5084227;28;20463;-76
2021/12/19 08:51:28;;;;;;;251.88;38.33;;;7.20;99.90;;;;;;5092150;28;20426;-76
2021/12/19 08:53:54;;;;;;;172.60;26.67;;;7.10;99.90;;;;;;5074385;28;20044;-76
2021/12/19 08:56:20;;;;;;;92.20;15.52;;;7.10;99.90;;;;;;5082197;28;20035;-76
2021/12/19 08:58:45;;;;;;;73.13;21.13;;;7.10;99.90;;;;;;5086557;28;20074;-77
2021/12/19 09:01:11;;;;;;;53.67;18.10;;;7.20;99.90;;;;;;5092732;28;20042;-77
2021/12/19 09:03:37;;;;;;;38.00;11.00;;;7.20;99.90;;;;;;5091827;28;20063;-77
2021/12/19 09:06:04;;;;;;;21.65;10.52;;;7.20;99.90;;;;;;5093226;28;20024;-77
2021/12/19 09:08:29;;;;;;;21.23;9.05;;;7.20;99.90;;;;;;5092824;28;20047;-75
2021/12/19 09:10:56;;;;;;;2.63;2.40;;;7.20;99.90;;;;;;5084966;28;20027;-75
2021/12/19 09:13:22;;;;;;;2.05;1.70;;;7.20;99.90;;;;;;5091384;28;20028;-76
2021/12/19 09:15:48;;;;;;;2.97;1.30;;;7.30;99.90;;;;;;5090854;28;20035;-76
2021/12/19 09:18:14;;;;;;;2.38;0.90;;;7.30;99.90;;;;;;5084559;28;20032;-78
2021/12/19 09:20:40;;;;;;;1.73;1.20;;;7.30;99.90;;;;;;5084660;28;20033;-76
2021/12/19 09:23:05;;;;;;;2.13;1.10;;;7.40;99.90;;;;;;5088751;28;20029;-76
2021/12/19 09:25:31;;;;;;;2.40;1.75;;;7.30;99.90;;;;;;5088568;28;20096;-77
2021/12/19 09:27:56;;;;;;;1.80;1.05;;;7.30;99.90;;;;;;5088785;28;20032;-77
2021/12/19 09:30:24;;;;;;;1.85;1.10;;;7.40;99.90;;;;;;5088480;28;20096;-75
2021/12/19 09:32:50;;;;;;;3.22;1.10;;;7.40;99.90;;;;;;5082466;28;20037;-74
2021/12/19 09:35:16;;;;;;;3.97;1.40;;;7.50;99.90;;;;;;5088377;28;20028;-75
2021/12/19 09:37:42;;;;;;;2.60;1.50;;;7.40;99.90;;;;;;5083424;28;20040;-81
2021/12/19 09:40:17;;;;;;;4.32;1.33;;;7.40;99.90;;;;;;5073150;28;20136;-77
2021/12/19 09:42:47;;;;;;;2.70;1.20;;;7.50;99.90;;;;;;5097086;28;20036;-79
2021/12/19 09:45:13;;;;;;;;;;;7.50;99.90;;;;;;5099425;28;20077;-77
2021/12/19 09:47:39;;;;;;;2.25;1.10;;;7.50;99.90;;;;;;5075469;28;19921;-75
2021/12/19 09:50:07;;;;;;;2.08;1.65;;;7.50;99.90;;;;;;5095710;28;20420;-77
2021/12/19 09:52:34;;;;;;;5.30;1.30;;;7.50;99.90;;;;;;5093731;28;20037;-80
2021/12/19 09:54:59;;;;;;;4.47;1.35;;;7.50;99.90;;;;;;5090220;28;20028;-80
2021/12/19 09:57:25;;;;;;;3.83;1.40;;;7.50;99.90;;;;;;5094730;28;20038;-80
2021/12/19 09:59:51;;;;;;;1.35;1.25;;;7.50;99.90;;;;;;5092842;28;20024;-77
2021/12/19 10:02:17;;;;;;;2.03;1.52;;;7.50;99.90;;;;;;5093074;28;20024;-79
2021/12/19 10:04:46;;;;;;;2.10;1.90;;;7.50;99.90;;;;;;5082546;28;20035;-75
2021/12/19 10:07:17;;;;;;;4.28;3.25;;;7.50;99.90;;;;;;5085489;28;20016;-80
2021/12/19 10:10:24;;;;;;;4.13;3.28;;;7.50;99.90;;;;;;5087091;28;20081;-81
2021/12/19 10:12:58;;;;;;;5.57;3.70;;;7.50;99.90;;;;;;5088108;28;20399;-75
2021/12/19 10:15:38;;;;;;;4.93;4.43;;;7.60;99.90;;;;;;5079184;28;20397;-74
2021/12/19 10:18:12;;;;;;;7.43;4.73;;;7.60;99.90;;;;;;5082079;28;20029;-74
2021/12/19 10:20:44;;;;;;;7.45;4.55;;;7.60;99.90;;;;;;5079812;28;20032;-74
2021/12/19 10:23:31;;;;;;;5.50;5.00;;;7.60;99.90;;;;;;5076838;28;20033;-73
2021/12/19 10:26:03;;;;;;;7.20;4.93;;;7.70;99.90;;;;;;5090638;28;20476;-80
2021/12/19 10:28:30;;;;;;;4.65;4.25;;;7.70;99.90;;;;;;5086696;28;20077;-76
2021/12/19 10:30:58;;;;;;;5.13;3.88;;;7.70;99.90;;;;;;5094516;28;20036;-78
2021/12/19 10:33:27;;;;;;;5.97;2.97;;;7.70;99.90;;;;;;5087150;28;20089;-79
2021/12/19 10:35:55;;;;;;;8.45;3.00;;;7.60;99.90;;;;;;5091813;28;20112;-80
2021/12/19 10:38:41;;;;;;;2.63;2.42;;;7.70;99.90;;;;;;5094216;28;20036;-78
2021/12/19 10:41:11;;;;;;;4.32;2.13;;;7.70;99.90;;;;;;5092914;28;20054;-77
2021/12/19 10:44:01;;;;;;;2.50;2.25;;;7.60;99.90;;;;;;5089464;28;20024;-77
2021/12/19 10:46:33;;;;;;;3.13;1.90;;;7.60;99.90;;;;;;5089241;28;20065;-76
2021/12/19 10:49:01;;;;;;;5.70;2.03;;;7.70;99.90;;;;;;5093789;28;20070;-78
2021/12/19 10:51:29;;;;;;;23.10;6.32;;;7.70;99.90;;;;;;5094216;28;20086;-79
2021/12/19 10:53:57;;;;;;;15.75;5.40;;;7.70;99.90;;;;;;5094105;28;20423;-78
2021/12/19 10:56:26;;;;;;;12.30;5.63;;;7.70;99.90;;;;;;5082407;28;20032;-77
2021/12/19 10:58:57;;;;;;;20.17;8.07;;;7.70;99.90;;;;;;5093191;28;20488;-78
2021/12/19 11:01:29;;;;;;;24.05;9.13;;;7.80;99.90;;;;;;5090059;28;20111;-76
2021/12/19 11:04:09;;;;;;;21.30;7.38;;;7.80;99.90;;;;;;5092727;28;20397;-75
2021/12/19 11:06:39;;;;;;;25.10;8.80;;;7.90;99.90;;;;;;5091424;28;20480;-76
2021/12/19 11:09:15;;;;;;;15.63;5.28;;;7.90;99.90;;;;;;5083068;28;20028;-75
2021/12/19 11:11:51;;;;;;;36.63;13.52;;;7.80;99.90;;;;;;5089268;28;20020;-77
2021/12/19 11:14:20;;;;;;;20.95;7.38;;;7.80;99.90;;;;;;5084991;28;20051;-75
2021/12/19 11:16:48;;;;;;;6.87;3.00;;;7.90;99.90;;;;;;5087294;28;21482;-74
2021/12/19 11:19:14;;;;;;;6.07;3.40;;;7.90;99.90;;;;;;5085769;28;20472;-75
2021/12/19 11:21:41;;;;;;;22.58;8.52;;;7.90;99.90;;;;;;5090702;28;20039;-73
2021/12/19 11:24:14;;;;;;;19.83;4.93;;;7.80;99.90;;;;;;5084142;28;20036;-75
2021/12/19 11:26:42;;;;;;;17.55;6.07;;;7.80;99.90;;;;;;5086455;28;20040;-75
2021/12/19 11:29:08;;;;;;;12.25;4.78;;;7.80;99.90;;;;;;5081897;28;20033;-74
2021/12/19 11:31:34;;;;;;;20.63;10.05;;;7.80;99.90;;;;;;5084711;28;20031;-75
2021/12/19 11:34:19;;;;;;;89.65;30.23;;;7.80;99.90;;;;;;5078046;28;20036;-75
2021/12/19 11:36:50;;;;;;;37.55;12.18;;;7.90;99.90;;;;;;5075946;28;20067;-76
2021/12/19 11:39:16;;;;;;;36.55;15.05;;;7.90;99.90;;;;;;5080324;28;20118;-77
2021/12/19 11:42:02;;;;;;;5.47;3.30;;;7.90;99.90;;;;;;5086927;28;21236;-75
2021/12/19 11:44:44;;;;;;;5.70;4.68;;;8.00;99.90;;;;;;5089655;28;20025;-76
2021/12/19 11:47:14;;;;;;;16.80;5.55;;;8.00;99.90;;;;;;5090048;28;20083;-76
2021/12/19 11:49:40;;;;;;;12.23;5.82;;;7.90;99.90;;;;;;5094148;28;20535;-76
2021/12/19 11:52:30;;;;;;;14.60;7.10;;;7.90;99.90;;;;;;5093346;28;20028;-75
2021/12/19 11:55:13;;;;;;;10.10;5.50;;;7.90;99.90;;;;;;5092683;28;20108;-75
2021/12/19 11:57:42;;;;;;;45.95;18.30;;;7.90;99.90;;;;;;5075888;28;20814;-75
2021/12/19 12:00:27;;;;;;;13.27;6.50;;;8.00;99.90;;;;;;5079710;28;20070;-77
2021/12/19 12:03:29;;;;;;;8.75;5.93;;;8.00;99.90;;;;;;5082757;28;20095;-75
2021/12/19 12:06:15;;;;;;;16.90;6.57;;;8.00;99.90;;;;;;5082274;28;20036;-76
2021/12/19 12:09:04;;;;;;;25.58;11.18;;;8.00;99.90;;;;;;5077592;28;20092;-76
2021/12/19 12:11:31;;;;;;;17.42;10.07;;;8.00;99.90;;;;;;5074395;28;20379;-75
2021/12/19 12:14:20;;;;;;;23.50;9.00;;;7.90;99.90;;;;;;5072927;28;20033;-76
2021/12/19 12:16:55;;;;;;;16.15;7.80;;;7.90;99.90;;;;;;5073251;28;20381;-76
2021/12/19 12:19:42;;;;;;;17.75;7.68;;;7.90;99.90;;;;;;5077243;28;20024;-75
2021/12/19 12:22:23;;;;;;;15.02;6.65;;;8.00;99.90;;;;;;5091385;28;20112;-73
2021/12/19 12:25:16;;;;;;;16.92;8.15;;;8.00;99.90;;;;;;5086905;28;20114;-73
2021/12/19 12:27:56;;;;;;;16.08;7.22;;;8.00;99.90;;;;;;5075553;28;20438;-75
2021/12/19 12:30:28;;;;;;;15.10;6.72;;;7.90;99.90;;;;;;5084359;28;20392;-76
2021/12/19 12:32:57;;;;;;;15.13;5.30;;;8.00;99.90;;;;;;5082753;28;20028;-76
2021/12/19 12:35:25;;;;;;;11.93;6.10;;;8.00;99.90;;;;;;5083091;28;20020;-75
2021/12/19 12:37:53;;;;;;;16.50;7.88;;;8.00;99.90;;;;;;5092166;28;20111;-75
2021/12/19 12:43:09;;;;;;;29.02;11.07;;;7.90;99.90;;;;;;5071060;28;20056;-77
2021/12/19 12:46:14;;;;;;;18.77;8.38;;;7.90;99.90;;;;;;5075805;28;20036;-77
2021/12/19 12:48:58;;;;;;;12.70;4.75;;;7.90;99.90;;;;;;5086569;28;20431;-77
2021/12/19 12:51:33;;;;;;;13.88;4.13;;;7.90;99.90;;;;;;5089444;28;20036;-77
2021/12/19 12:54:08;;;;;;;7.60;3.40;;;7.80;99.90;;;;;;5090483;28;20036;-78
2021/12/19 12:56:39;;;;;;;3.42;2.22;;;7.80;99.90;;;;;;5089996;28;20496;-77
2021/12/19 12:59:06;;;;;;;8.20;2.47;;;7.80;99.90;;;;;;5082847;28;20043;-77
2021/12/19 13:01:36;;;;;;;4.47;2.35;;;7.70;99.90;;;;;;5084658;28;20070;-77
2021/12/19 13:04:03;;;;;;;4.38;2.70;;;7.70;99.90;;;;;;5086421;28;20039;-75
2021/12/19 13:06:35;;;;;;;8.52;3.97;;;7.60;99.90;;;;;;5074228;28;20028;-76
2021/12/19 13:09:29;;;;;;;3.83;2.85;;;7.60;99.90;;;;;;5072623;28;20031;-76
2021/12/19 13:12:06;;;;;;;4.10;3.65;;;7.60;99.90;;;;;;5076413;28;20089;-76
2021/12/19 13:14:36;;;;;;;4.75;3.00;;;7.60;99.90;;;;;;5074566;28;20032;-77
2021/12/19 13:17:08;;;;;;;9.25;3.80;;;7.60;99.90;;;;;;5070797;28;20081;-79
2021/12/19 13:19:47;;;;;;;11.35;4.03;;;7.60;99.90;;;;;;5074445;28;20089;-77
2021/12/19 13:22:19;;;;;;;5.88;4.18;;;7.60;99.90;;;;;;5074736;28;20111;-77
2021/12/19 13:24:46;;;;;;;6.15;4.32;;;7.60;99.90;;;;;;5074811;28;20035;-77
2021/12/19 13:27:14;;;;;;;6.38;4.38;;;7.60;99.90;;;;;;5076761;28;20024;-77
2021/12/19 13:29:41;;;;;;;19.52;9.10;;;7.50;99.90;;;;;;5087272;28;20028;-79
2021/12/19 13:32:18;;;;;;;8.75;6.43;;;7.50;99.90;;;;;;5090330;28;20029;-80
2021/12/19 13:34:45;;;;;;;8.30;5.00;;;7.60;99.90;;;;;;5094770;28;20097;-80
2021/12/19 13:37:10;;;;;;;13.45;7.10;;;7.60;99.90;;;;;;5095277;28;20123;-80
2021/12/19 13:39:36;;;;;;;7.60;5.80;;;7.60;99.90;;;;;;5095633;28;20024;-80
2021/12/19 13:42:07;;;;;;;12.98;8.60;;;7.60;99.90;;;;;;5093795;28;20077;-79
2021/12/19 13:44:33;;;;;;;8.63;6.85;;;7.60;99.90;;;;;;5094124;28;20085;-80
2021/12/19 13:47:08;;;;;;;7.43;6.20;;;7.50;99.90;;;;;;5094881;28;20052;-79
2021/12/19 13:49:33;;;;;;;8.50;7.20;;;7.60;99.90;;;;;;5095411;28;20025;-79
2021/12/19 13:52:00;;;;;;;10.13;7.55;;;7.50;99.90;;;;;;5098515;28;20039;-78
2021/12/19 13:54:29;;;;;;;24.30;17.13;;;7.50;99.90;;;;;;5093313;28;20082;-79
2021/12/19 13:56:54;;;;;;;28.17;19.10;;;7.40;99.90;;;;;;5083320;28;20020;-79
2021/12/19 13:59:21;;;;;;;22.52;14.50;;;7.40;99.90;;;;;;5088863;28;20376;-78
2021/12/19 14:01:48;;;;;;;36.58;23.13;;;7.40;99.90;;;;;;5083734;28;20020;-79